Pagrindinis puslapis
METAR-TAF:

METAR-TAF

Oro uostai :

Čengdu, Kinija

platuma: 30-40N, ilguma: 104-01E, Aukštis: 508 m

Dabartinis oras

Ataskaita buvo paskelbta 57 minutes, ne 06:00 UTC
Vėjas 4 kt iš Pietvakarių
Temperatūra 10°C
Drėgmė 87%
Slėgis 1024 hPa
Matomumas: 8000 m
Išsisklaidę debesys ne aukštis 5000 ft

METAR: ZUUU 250600Z 23002MPS 8000 SCT050 10/08 Q1024 NOSIG

Laikas: 14:57 (06:57 UTC)

Prognozė

Ataskaita buvo paskelbta 3 valandos ir 53 minutes, ne 03:04 UTC
Prognozė galioja nuo 25 metu 06 UTC su 26 metu 06 UTC
Vėjas 6 kt iš Pietų/Pietvakarių
Matomumas: 5000 m
Išsisklaidę debesys ne aukštis 5000 ft
rūkana
Tapsmas
nuo 25 metu 22 UTC su 25 metu 23 UTC
Matomumas: 2300 m
Tapsmas
nuo 26 metu 01 UTC su 26 metu 02 UTC
Matomumas: 3500 m

TAF: ZUUU 250304Z 2506/2606 20003MPS 5000 BR SCT050 TX13/2507Z TN04/2523Z BECMG 2522/2523 2300 BECMG 2601/2602 3500

Orai ataskaitas ir orų prognozės (METAR, TAF).

turimą stotys yra geltonos ir raudonos taškus žemėlapyje.

Perkelti pele per norėdami pamatyti stoties vardą.

Tada spustelėkite, norėdami matyti oro stebėjimo ir prognozės.

Norėdami pakeisti žemėlapį: spustelėkite ant žalios mygtukų su juodo kryžiaus žemyn,; žalią mygtuką su brūkšneliu, jei norite nutolinti; arba žalių rodyklių gretimoms žemėlapius.


METAR-TAF: